Time;durP1;ratioP1;P1;durP2;ratioP2;P2;SDS_P1;SDS_P2;PMS_P1;PMS_P2;Temp;Humidity;BMP_temperature;BMP_pressure;BME280_temperature;BME280_humidity;BME280_pressure;Samples;Min_cycle;Max_cycle;Signal;HPM_P1;HPM_P2
2021/04/11 00:00:41;;;;;;;6.05;5.35;;;7.10;50.40;;;;;;5028823;28;20040;-81
2021/04/11 00:03:11;;;;;;;7.05;5.43;;;7.00;49.60;;;;;;4994711;28;20029;-81
2021/04/11 00:05:40;;;;;;;5.32;4.82;;;7.00;49.70;;;;;;4994745;28;20029;-81
2021/04/11 00:08:09;;;;;;;5.68;5.15;;;7.00;49.70;;;;;;4994700;28;20488;-82
2021/04/11 00:10:43;;;;;;;5.60;4.90;;;7.00;49.80;;;;;;4993966;28;20049;-82
2021/04/11 00:13:15;;;;;;;6.75;5.10;;;6.90;49.70;;;;;;5011207;28;20044;-80
2021/04/11 00:15:41;;;;;;;5.63;5.13;;;6.90;49.70;;;;;;5029051;28;20071;-81
2021/04/11 00:18:07;;;;;;;5.40;4.90;;;6.90;49.70;;;;;;5010934;28;20025;-82
2021/04/11 00:20:35;;;;;;;6.18;5.43;;;6.80;49.50;;;;;;4994889;28;20536;-80
2021/04/11 00:23:03;;;;;;;5.72;5.22;;;6.80;49.70;;;;;;5010023;28;20025;-81
2021/04/11 00:25:34;;;;;;;5.25;4.85;;;6.80;49.70;;;;;;5010778;28;20099;-83
2021/04/11 00:28:01;;;;;;;5.47;4.95;;;6.70;49.60;;;;;;5010901;28;20037;-83
2021/04/11 00:30:28;;;;;;;5.45;4.10;;;6.70;49.60;;;;;;4977769;28;20030;-82
2021/04/11 00:33:03;;;;;;;5.20;4.30;;;6.70;49.70;;;;;;4993289;28;20043;-83
2021/04/11 00:35:30;;;;;;;5.45;4.95;;;6.60;49.60;;;;;;5028307;28;20075;-82
2021/04/11 00:37:57;;;;;;;5.05;4.65;;;6.60;49.60;;;;;;5010824;28;20196;-83
2021/04/11 00:40:35;;;;;;;5.15;4.75;;;6.60;49.60;;;;;;5009637;28;20037;-83
2021/04/11 00:43:12;;;;;;;4.88;4.43;;;6.60;49.70;;;;;;4994467;28;20471;-84
2021/04/11 00:46:07;;;;;;;5.43;4.93;;;6.50;49.60;;;;;;5011157;28;20409;-81
2021/04/11 00:48:34;;;;;;;5.18;4.75;;;6.50;49.60;;;;;;5010306;28;20493;-83
2021/04/11 00:51:10;;;;;;;5.28;4.78;;;6.50;49.50;;;;;;5010229;28;20092;-82
2021/04/11 00:53:36;;;;;;;5.13;4.65;;;6.40;49.50;;;;;;5010216;28;20251;-81
2021/04/11 00:56:05;;;;;;;6.00;5.18;;;6.40;49.50;;;;;;5009876;28;20119;-80
2021/04/11 00:58:33;;;;;;;5.43;4.60;;;6.40;49.50;;;;;;5025282;28;20468;-81
2021/04/11 01:01:00;;;;;;;6.18;4.82;;;6.30;49.40;;;;;;5026184;28;20068;-80
2021/04/11 01:03:30;;;;;;;5.18;4.35;;;6.30;49.50;;;;;;5009859;28;20536;-81
2021/04/11 01:05:58;;;;;;;4.60;4.20;;;6.30;49.50;;;;;;4993657;28;20121;-81
2021/04/11 01:08:28;;;;;;;5.63;4.70;;;6.30;49.60;;;;;;4993856;28;20075;-81
2021/04/11 01:11:03;;;;;;;4.47;4.07;;;6.20;49.50;;;;;;4993307;28;20137;-82
2021/04/11 01:13:32;;;;;;;5.20;4.60;;;6.10;49.40;;;;;;5009242;28;20044;-82
2021/04/11 01:15:59;;;;;;;4.68;4.28;;;6.10;49.40;;;;;;5009910;28;20029;-81
2021/04/11 01:18:26;;;;;;;4.57;4.18;;;6.10;49.50;;;;;;4977356;28;20500;-81
2021/04/11 01:20:55;;;;;;;4.05;3.72;;;6.10;49.60;;;;;;4992834;28;20124;-82
2021/04/11 01:23:45;;;;;;;5.55;4.25;;;6.10;49.70;;;;;;4993606;28;20084;-81
2021/04/11 01:26:13;;;;;;;4.57;4.18;;;6.00;49.60;;;;;;4993398;28;20033;-80
2021/04/11 01:28:44;;;;;;;4.53;4.15;;;6.10;49.70;;;;;;5025715;28;20408;-80
2021/04/11 01:31:12;;;;;;;4.35;3.78;;;6.00;49.60;;;;;;5002883;28;20021;-81
2021/04/11 01:33:48;;;;;;;5.35;4.15;;;6.00;49.60;;;;;;5007220;28;20033;-80
2021/04/11 01:36:18;;;;;;;4.65;3.83;;;6.00;49.70;;;;;;4992235;28;20026;-80
2021/04/11 01:38:46;;;;;;;5.47;4.40;;;6.00;49.70;;;;;;5010476;28;20033;-82
2021/04/11 01:41:33;;;;;;;4.30;3.90;;;6.00;49.70;;;;;;5027183;28;20032;-79
2021/04/11 01:44:03;;;;;;;4.70;4.13;;;6.00;49.80;;;;;;5010048;28;20045;-81
2021/04/11 01:46:30;;;;;;;6.22;4.32;;;6.00;49.80;;;;;;5008510;28;20692;-80
2021/04/11 01:48:57;;;;;;;4.78;4.10;;;5.90;49.60;;;;;;5011671;28;20045;-81
2021/04/11 01:51:34;;;;;;;4.72;4.32;;;5.90;49.70;;;;;;5012294;28;20069;-81
2021/04/11 01:54:03;;;;;;;4.05;3.72;;;5.90;49.90;;;;;;4995475;28;20026;-81
2021/04/11 01:56:30;;;;;;;5.32;4.28;;;5.80;49.60;;;;;;5011707;28;20037;-81
2021/04/11 01:59:08;;;;;;;4.30;3.90;;;5.80;49.70;;;;;;5011789;28;20072;-79
2021/04/11 02:01:39;;;;;;;4.93;4.07;;;5.80;49.80;;;;;;5010975;28;20117;-81
2021/04/11 02:04:07;;;;;;;4.07;3.67;;;5.80;49.80;;;;;;5013692;28;20029;-82
2021/04/11 02:06:43;;;;;;;4.55;4.15;;;5.80;49.80;;;;;;4997847;28;20037;-83
2021/04/11 02:09:29;;;;;;;4.03;3.65;;;5.80;49.90;;;;;;5014484;28;20083;-81
2021/04/11 02:12:07;;;;;;;4.35;3.95;;;5.80;49.90;;;;;;4996597;28;20029;-81
2021/04/11 02:14:39;;;;;;;4.30;3.90;;;5.70;49.60;;;;;;5013778;28;20473;-80
2021/04/11 02:17:05;;;;;;;4.20;3.80;;;5.80;49.90;;;;;;5012943;28;20029;-81
2021/04/11 02:19:32;;;;;;;4.70;4.30;;;5.70;49.70;;;;;;5013279;28;20022;-81
2021/04/11 02:22:06;;;;;;;4.20;3.83;;;5.70;49.80;;;;;;4996912;28;20040;-81
2021/04/11 02:24:40;;;;;;;3.83;3.53;;;5.70;49.90;;;;;;4997570;28;20127;-80
2021/04/11 02:27:09;;;;;;;5.80;3.97;;;5.70;49.90;;;;;;4996626;28;20056;-82
2021/04/11 02:29:37;;;;;;;3.72;3.42;;;5.70;49.90;;;;;;4981085;28;20497;-81
2021/04/11 02:32:04;;;;;;;5.43;4.00;;;5.60;49.80;;;;;;4996639;28;20034;-80
2021/04/11 02:34:32;;;;;;;4.22;3.50;;;5.70;50.50;;;;;;5012733;28;20022;-80
2021/04/11 02:37:14;;;;;;;4.43;3.75;;;5.60;49.80;;;;;;5012979;28;20025;-80
2021/04/11 02:39:41;;;;;;;4.20;3.75;;;5.60;49.90;;;;;;5012730;28;20033;-81
2021/04/11 02:42:15;;;;;;;4.43;3.80;;;5.60;49.80;;;;;;5012970;28;20347;-82
2021/04/11 02:44:44;;;;;;;4.43;3.95;;;5.60;50.00;;;;;;5030961;28;20034;-82
2021/04/11 02:47:13;;;;;;;3.97;3.58;;;5.60;50.00;;;;;;4996980;28;20385;-82
2021/04/11 02:49:39;;;;;;;4.43;4.03;;;5.50;49.80;;;;;;5013334;28;20041;-82
2021/04/11 02:52:11;;;;;;;4.75;4.25;;;5.50;49.90;;;;;;5013161;28;20035;-82
2021/04/11 02:54:38;;;;;;;4.40;4.00;;;5.50;49.90;;;;;;4996345;28;20025;-81
2021/04/11 02:57:13;;;;;;;4.65;4.15;;;5.50;49.90;;;;;;4997951;28;20030;-84
2021/04/11 02:59:40;;;;;;;4.88;4.40;;;5.50;49.90;;;;;;5013290;28;20032;-81
2021/04/11 03:02:07;;;;;;;4.53;4.13;;;5.50;50.00;;;;;;5021380;28;20026;-80
2021/04/11 03:04:42;;;;;;;4.25;3.92;;;5.50;50.00;;;;;;4998274;28;20080;-82
2021/04/11 03:07:19;;;;;;;4.07;3.53;;;5.50;50.00;;;;;;4993603;28;20049;-81
2021/04/11 03:09:49;;;;;;;4.30;3.78;;;5.50;50.10;;;;;;4989695;28;20085;-82
2021/04/11 03:12:20;;;;;;;4.20;3.80;;;5.50;50.10;;;;;;4976069;28;20061;-82
2021/04/11 03:14:48;;;;;;;4.38;3.75;;;5.50;50.10;;;;;;4978045;28;20449;-81
2021/04/11 03:17:22;;;;;;;5.25;4.40;;;5.50;50.10;;;;;;5023824;28;20400;-82
2021/04/11 03:20:12;;;;;;;5.22;4.72;;;5.50;50.10;;;;;;5028730;28;20091;-80
2021/04/11 03:22:41;;;;;;;5.65;4.47;;;5.50;50.20;;;;;;4987138;28;20029;-81
2021/04/11 03:25:13;;;;;;;4.72;4.30;;;5.50;50.10;;;;;;5025833;28;20569;-80
2021/04/11 03:27:57;;;;;;;4.97;4.28;;;5.50;50.10;;;;;;4996826;28;20041;-81
2021/04/11 03:30:30;;;;;;;4.60;4.05;;;5.50;50.20;;;;;;5028973;28;20044;-81
2021/04/11 03:33:04;;;;;;;5.72;5.03;;;5.50;50.20;;;;;;5012699;28;20041;-80
2021/04/11 03:35:37;;;;;;;5.32;4.82;;;5.50;50.20;;;;;;5030045;28;20103;-82
2021/04/11 03:38:06;;;;;;;5.93;4.70;;;5.50;50.20;;;;;;5013251;28;20040;-83
2021/04/11 03:40:35;;;;;;;6.50;4.30;;;5.50;50.10;;;;;;4988902;28;20025;-81
2021/04/11 03:43:16;;;;;;;5.65;5.10;;;5.50;50.20;;;;;;5013694;28;20033;-81
2021/04/11 03:45:45;;;;;;;6.30;4.90;;;5.50;50.30;;;;;;5016671;28;20121;-83
2021/04/11 03:48:23;;;;;;;5.65;4.80;;;5.50;50.20;;;;;;5016225;28;20087;-82
2021/04/11 03:51:18;;;;;;;5.80;5.15;;;5.50;50.30;;;;;;5032651;28;20162;-79
2021/04/11 03:53:54;;;;;;;6.68;5.50;;;5.50;50.30;;;;;;5009917;28;20497;-79
2021/04/11 03:56:24;;;;;;;5.57;5.07;;;5.50;50.20;;;;;;5015770;28;20034;-80
2021/04/11 03:58:56;;;;;;;6.07;5.43;;;5.50;50.80;;;;;;5015950;28;20166;-81
2021/04/11 04:01:42;;;;;;;5.93;5.38;;;5.50;50.20;;;;;;5048898;28;20477;-81
2021/04/11 04:04:14;;;;;;;6.88;5.82;;;5.50;50.30;;;;;;4998512;28;20097;-79
2021/04/11 04:07:05;;;;;;;5.40;4.90;;;5.50;50.20;;;;;;5015767;28;20072;-81
2021/04/11 04:09:31;;;;;;;5.88;5.38;;;5.50;50.30;;;;;;5048698;28;20088;-81
2021/04/11 04:12:09;;;;;;;7.45;6.07;;;5.50;50.20;;;;;;5033404;28;20389;-80
2021/04/11 04:14:54;;;;;;;7.80;6.78;;;5.50;50.20;;;;;;5033723;28;20055;-79
2021/04/11 04:17:37;;;;;;;7.40;5.85;;;5.50;50.30;;;;;;5015828;28;20029;-80
2021/04/11 04:20:23;;;;;;;7.03;5.72;;;5.50;50.20;;;;;;4998665;28;20488;-81
2021/04/11 04:23:01;;;;;;;;;;;5.50;50.30;;;;;;5017325;28;20034;-82
2021/04/11 04:25:50;;;;;;;6.72;6.13;;;5.50;50.10;;;;;;5032872;28;19909;-80
2021/04/11 04:28:37;;;;;;;6.43;5.82;;;5.50;50.00;;;;;;5015457;28;20417;-80
2021/04/11 04:31:26;;;;;;;9.48;6.75;;;5.50;50.00;;;;;;5032832;28;20529;-80
2021/04/11 04:34:31;;;;;;;6.88;6.20;;;5.50;50.10;;;;;;5014950;28;20177;-80
2021/04/11 04:36:57;;;;;;;8.15;7.35;;;5.50;50.20;;;;;;5015316;28;20473;-81
2021/04/11 04:39:54;;;;;;;8.00;7.20;;;5.50;50.70;;;;;;5014876;28;20026;-80
2021/04/11 04:42:42;;;;;;;7.80;7.03;;;5.50;50.20;;;;;;5009157;28;20072;-81
2021/04/11 04:45:15;;;;;;;8.15;7.15;;;5.50;50.10;;;;;;5014696;28;20021;-80
2021/04/11 04:48:30;;;;;;;7.80;6.63;;;5.50;50.10;;;;;;4983915;28;20540;-80
2021/04/11 04:51:14;;;;;;;7.97;7.18;;;5.60;50.40;;;;;;5008108;28;20037;-80
2021/04/11 04:53:55;;;;;;;7.93;7.13;;;5.50;50.20;;;;;;4991932;28;20033;-80
2021/04/11 04:56:38;;;;;;;7.50;6.80;;;5.50;50.20;;;;;;4991255;28;20026;-80
2021/04/11 04:59:14;;;;;;;8.85;7.95;;;5.50;50.20;;;;;;5004913;28;20112;-81
2021/04/11 05:02:01;;;;;;;8.13;7.32;;;5.50;50.20;;;;;;5002705;28;20037;-81
2021/04/11 05:04:38;;;;;;;9.25;7.80;;;5.50;50.20;;;;;;5010417;28;20037;-81
2021/04/11 05:07:11;;;;;;;;;;;5.60;51.00;;;;;;5007255;28;20587;-81
2021/04/11 05:09:42;;;;;;;10.18;7.88;;;5.60;50.30;;;;;;5022692;28;20054;-82
2021/04/11 05:12:40;;;;;;;8.32;7.45;;;5.60;50.20;;;;;;5025111;28;20927;-81
2021/04/11 05:15:11;;;;;;;8.80;7.47;;;5.60;50.30;;;;;;5009825;28;20034;-81
2021/04/11 05:18:02;;;;;;;9.38;8.50;;;5.50;50.10;;;;;;5007943;28;20555;-82
2021/04/11 05:20:34;;;;;;;10.07;8.63;;;5.60;50.40;;;;;;5009788;28;20045;-81
2021/04/11 05:23:33;;;;;;;9.05;8.15;;;5.50;50.10;;;;;;4989717;28;20037;-82
2021/04/11 05:26:09;;;;;;;9.98;8.98;;;5.50;50.20;;;;;;4994350;28;20235;-81
2021/04/11 05:28:57;;;;;;;9.63;8.55;;;5.50;50.20;;;;;;5009399;28;20026;-80
2021/04/11 05:31:29;;;;;;;8.70;7.88;;;5.50;50.20;;;;;;5009358;28;20111;-80
2021/04/11 05:33:57;;;;;;;10.15;8.75;;;5.50;50.20;;;;;;5008588;28;20469;-83
2021/04/11 05:37:26;;;;;;;9.13;7.75;;;5.50;50.20;;;;;;5009554;28;20099;-82
2021/04/11 05:40:00;;;;;;;12.02;8.75;;;5.60;50.50;;;;;;4952213;28;20041;-81
2021/04/11 05:42:50;;;;;;;10.57;8.27;;;5.50;50.20;;;;;;4968495;28;20940;-81
2021/04/11 05:45:32;;;;;;;10.00;9.00;;;5.60;50.40;;;;;;4986594;28;20029;-80
2021/04/11 05:48:08;;;;;;;9.38;8.27;;;5.60;50.40;;;;;;5009498;28;20095;-80
2021/04/11 05:51:00;;;;;;;10.20;8.32;;;5.60;50.40;;;;;;5009470;28;20079;-81
2021/04/11 05:53:38;;;;;;;10.20;9.10;;;5.60;50.40;;;;;;4991733;28;20161;-81
2021/04/11 05:56:11;;;;;;;10.35;9.35;;;5.60;50.40;;;;;;5008794;28;20036;-81
2021/04/11 05:58:47;;;;;;;16.10;9.75;;;5.60;50.40;;;;;;4992459;28;20033;-82
2021/04/11 06:01:21;;;;;;;9.93;8.90;;;5.60;50.60;;;;;;4992947;28;20178;-82
2021/04/11 06:03:53;;;;;;;;;;;5.60;50.70;;;;;;5008650;28;20092;-85
2021/04/11 06:06:26;;;;;;;13.15;9.23;;;5.70;50.80;;;;;;5008253;28;20006;-82
2021/04/11 06:09:18;;;;;;;12.00;9.38;;;5.70;50.80;;;;;;5033266;28;20069;-82
2021/04/11 06:11:59;;;;;;;13.48;9.10;;;5.70;51.00;;;;;;5008325;28;20045;-81
2021/04/11 06:14:34;;;;;;;11.60;9.43;;;5.70;51.10;;;;;;4989016;28;20044;-84
2021/04/11 06:17:07;;;;;;;11.15;9.73;;;5.80;51.40;;;;;;4989583;28;20022;-81
2021/04/11 06:19:34;;;;;;;12.93;9.65;;;5.80;51.50;;;;;;4997208;28;20038;-82
2021/04/11 06:22:22;;;;;;;12.30;10.02;;;5.90;51.70;;;;;;4999723;28;20025;-80
2021/04/11 06:25:09;;;;;;;11.55;10.45;;;5.90;52.10;;;;;;4993267;28;20397;-82
2021/04/11 06:27:48;;;;;;;13.63;10.73;;;6.00;52.30;;;;;;4992916;28;20038;-82
2021/04/11 06:30:22;;;;;;;11.85;10.38;;;6.00;52.40;;;;;;5024588;28;20034;-82
2021/04/11 06:32:53;;;;;;;14.02;11.20;;;6.10;52.50;;;;;;5025896;28;20057;-83
2021/04/11 06:35:39;;;;;;;13.70;11.00;;;6.20;52.80;;;;;;5027580;28;20488;-80
2021/04/11 06:38:09;;;;;;;12.02;10.70;;;6.30;53.10;;;;;;5028592;28;20492;-82
2021/04/11 06:40:53;;;;;;;11.88;10.35;;;6.30;53.00;;;;;;5010596;28;20034;-78
2021/04/11 06:43:53;;;;;;;13.15;10.98;;;6.40;53.40;;;;;;4992147;28;20041;-79
2021/04/11 06:46:38;;;;;;;13.73;12.07;;;6.50;53.60;;;;;;5009827;28;20076;-78
2021/04/11 06:49:27;;;;;;;12.75;10.98;;;6.60;53.90;;;;;;5009282;28;20550;-78
2021/04/11 06:52:18;;;;;;;15.07;11.57;;;6.70;54.10;;;;;;4992676;28;20042;-82
2021/04/11 06:55:01;;;;;;;11.98;10.70;;;6.80;54.10;;;;;;5024639;28;20435;-81
2021/04/11 06:58:06;;;;;;;14.90;11.43;;;6.90;54.20;;;;;;5008516;28;20446;-80
2021/04/11 07:00:31;;;;;;;;;;;6.90;54.00;;;;;;4984586;28;20133;-82
2021/04/11 07:03:19;;;;;;;13.13;11.43;;;7.00;53.80;;;;;;5011424;28;20020;-78
2021/04/11 07:05:48;;;;;;;12.85;11.55;;;7.00;53.70;;;;;;5001961;28;20038;-84
2021/04/11 07:09:04;;;;;;;12.75;11.43;;;7.10;53.90;;;;;;5024221;28;20573;-86
2021/04/11 07:11:46;;;;;;;12.65;10.52;;;7.20;54.10;;;;;;5002346;28;20099;-79
2021/04/11 07:14:21;;;;;;;13.18;11.45;;;7.20;54.00;;;;;;5008616;28;20049;-86
2021/04/11 07:16:47;;;;;;;12.50;10.57;;;7.30;54.20;;;;;;5026755;28;20065;-79
2021/04/11 07:19:19;;;;;;;11.48;10.35;;;7.30;54.00;;;;;;5029598;28;20562;-83
2021/04/11 07:22:19;;;;;;;13.10;10.98;;;7.40;54.20;;;;;;4996827;28;20033;-86
2021/04/11 07:25:12;;;;;;;12.50;11.30;;;7.40;54.20;;;;;;5000806;28;20029;-84
2021/04/11 07:27:42;;;;;;;13.40;11.77;;;7.40;54.20;;;;;;5004617;28;20049;-84
2021/04/11 07:30:42;;;;;;;12.20;11.00;;;7.50;54.20;;;;;;4992082;28;20033;-85
2021/04/11 07:33:35;;;;;;;12.68;11.38;;;7.60;55.00;;;;;;5003318;28;20022;-80
2021/04/11 07:36:26;;;;;;;13.90;11.88;;;7.60;54.30;;;;;;5010746;28;20025;-84
2021/04/11 07:38:52;;;;;;;14.73;12.10;;;7.60;54.20;;;;;;5008009;28;20392;-80
2021/04/11 07:41:27;;;;;;;13.43;11.93;;;7.70;54.20;;;;;;5008910;28;20030;-84
2021/04/11 07:44:12;;;;;;;13.27;11.80;;;7.70;54.20;;;;;;5025517;28;20072;-87
2021/04/11 07:46:50;;;;;;;12.35;10.80;;;7.70;54.40;;;;;;5031405;28;20041;-81
2021/04/11 07:49:31;;;;;;;12.55;11.35;;;7.80;54.60;;;;;;5026051;28;20030;-81
2021/04/11 07:52:03;;;;;;;13.23;11.77;;;8.00;55.00;;;;;;5010318;28;20036;-80
2021/04/11 07:54:54;;;;;;;14.27;12.75;;;8.10;55.00;;;;;;4993025;28;20033;-81
2021/04/11 07:57:58;;;;;;;14.63;12.50;;;8.30;55.60;;;;;;5004321;28;20392;-82
2021/04/11 08:00:55;;;;;;;13.25;11.90;;;8.40;55.70;;;;;;4994753;28;20044;-81
2021/04/11 08:03:35;;;;;;;14.68;13.20;;;8.80;56.20;;;;;;5008774;28;20067;-80
2021/04/11 08:06:11;;;;;;;16.60;14.30;;;9.00;56.10;;;;;;5010484;28;20143;-79
2021/04/11 08:09:08;;;;;;;17.55;14.05;;;9.20;56.10;;;;;;5003941;28;20432;-78
2021/04/11 08:12:13;;;;;;;14.82;13.43;;;9.50;56.20;;;;;;5023731;28;20037;-80
2021/04/11 08:14:51;;;;;;;16.00;14.27;;;9.80;56.20;;;;;;5027476;28;20021;-81
2021/04/11 08:17:45;;;;;;;14.77;13.27;;;10.00;56.00;;;;;;5023019;28;20033;-81
2021/04/11 08:20:38;;;;;;;14.73;12.17;;;10.20;55.90;;;;;;4974005;28;20034;-80
2021/04/11 08:23:29;;;;;;;15.05;13.55;;;10.30;55.60;;;;;;5022620;28;20267;-79
2021/04/11 08:26:20;;;;;;;16.35;14.68;;;10.50;55.60;;;;;;5025972;28;20033;-81
2021/04/11 08:29:04;;;;;;;16.05;14.43;;;10.50;55.30;;;;;;5011044;28;20423;-82
2021/04/11 08:31:42;;;;;;;15.65;14.02;;;10.60;55.30;;;;;;5027474;28;20503;-80
2021/04/11 08:34:42;;;;;;;17.05;14.50;;;10.60;55.10;;;;;;5008715;28;20503;-79
2021/04/11 08:37:32;;;;;;;16.05;14.65;;;10.70;55.10;;;;;;5007444;28;20037;-86
2021/04/11 08:40:23;;;;;;;14.55;13.18;;;10.80;55.20;;;;;;5006103;28;20038;-82
2021/04/11 08:43:01;;;;;;;15.55;13.95;;;10.80;55.20;;;;;;5011960;28;20042;-81
2021/04/11 08:45:49;;;;;;;19.58;14.48;;;10.80;55.00;;;;;;4975828;28;20092;-83
2021/04/11 08:48:34;;;;;;;16.20;14.52;;;10.90;55.10;;;;;;4997280;28;20064;-80
2021/04/11 08:51:54;;;;;;;16.70;15.20;;;11.00;55.00;;;;;;5010181;28;20064;-79
2021/04/11 08:54:31;;;;;;;14.80;13.40;;;11.10;55.00;;;;;;4927129;28;20450;-80
2021/04/11 08:57:35;;;;;;;15.85;14.35;;;11.10;54.90;;;;;;4983390;28;20605;-81
2021/04/11 09:00:27;;;;;;;16.13;14.63;;;11.10;54.80;;;;;;5004386;28;20061;-81
2021/04/11 09:03:20;;;;;;;16.10;14.48;;;11.20;54.90;;;;;;4998286;28;20041;-80
2021/04/11 09:06:32;;;;;;;15.75;14.25;;;11.20;54.80;;;;;;5010051;28;20036;-81
2021/04/11 09:09:15;;;;;;;13.75;12.45;;;11.30;55.00;;;;;;4974003;28;20034;-83
2021/04/11 09:11:59;;;;;;;16.60;14.90;;;11.40;55.10;;;;;;5008906;28;20038;-83
2021/04/11 09:14:40;;;;;;;17.33;13.48;;;11.40;54.80;;;;;;5030710;28;20017;-81
2021/04/11 09:17:28;;;;;;;15.25;13.88;;;11.50;54.80;;;;;;5004379;28;20026;-81
2021/04/11 09:20:04;;;;;;;16.83;15.02;;;11.60;55.00;;;;;;5007861;28;20113;-80
2021/04/11 09:22:41;;;;;;;16.35;14.68;;;11.70;55.00;;;;;;5008581;28;20033;-78
2021/04/11 09:25:20;;;;;;;16.20;14.68;;;11.80;55.00;;;;;;5006067;28;20029;-83
2021/04/11 09:28:07;;;;;;;14.43;12.93;;;11.90;54.90;;;;;;4998702;28;20052;-81
2021/04/11 09:31:00;;;;;;;17.45;14.32;;;12.00;54.90;;;;;;5009063;28;20476;-81
2021/04/11 09:33:34;;;;;;;15.55;13.95;;;12.00;54.70;;;;;;5030892;28;20029;-82
2021/04/11 09:36:40;;;;;;;16.08;14.05;;;12.00;54.70;;;;;;5010076;28;20455;-82
2021/04/11 09:39:42;;;;;;;17.00;12.48;;;12.00;54.60;;;;;;5001098;28;20919;-83
2021/04/11 09:42:18;;;;;;;15.48;13.52;;;12.00;54.60;;;;;;5009651;28;20366;-80
2021/04/11 09:45:24;;;;;;;17.25;13.15;;;12.00;54.70;;;;;;5010031;28;20037;-81
2021/04/11 09:47:59;;;;;;;20.42;13.38;;;12.00;54.70;;;;;;4990042;28;20045;-80
2021/04/11 09:50:31;;;;;;;21.65;12.63;;;12.00;54.90;;;;;;5007931;28;20029;-79
2021/04/11 09:53:28;;;;;;;20.05;13.95;;;12.10;55.30;;;;;;4989052;28;20456;-80
2021/04/11 09:56:19;;;;;;;15.48;13.25;;;12.30;55.70;;;;;;5009813;28;20029;-82
2021/04/11 09:58:57;;;;;;;22.48;12.60;;;12.40;55.70;;;;;;4997093;28;20116;-81
2021/04/11 10:02:00;;;;;;;18.92;12.45;;;12.50;55.70;;;;;;5003172;28;20206;-81
2021/04/11 10:04:39;;;;;;;18.30;12.32;;;12.60;55.60;;;;;;4991302;28;20183;-81
2021/04/11 10:07:43;;;;;;;19.80;12.85;;;12.60;55.40;;;;;;5007594;28;20044;-86
2021/04/11 10:10:18;;;;;;;17.88;12.85;;;12.50;55.10;;;;;;4990790;28;20457;-81
2021/04/11 10:13:12;;;;;;;15.73;12.63;;;12.50;55.10;;;;;;4978962;28;20049;-84
2021/04/11 10:15:41;;;;;;;14.82;11.75;;;12.60;55.30;;;;;;5023352;28;20033;-85
2021/04/11 10:18:10;;;;;;;12.80;11.45;;;12.60;55.20;;;;;;5008302;28;20040;-81
2021/04/11 10:20:58;;;;;;;12.65;11.30;;;12.70;55.10;;;;;;4992739;28;20029;-82
2021/04/11 10:23:46;;;;;;;13.48;11.32;;;12.70;55.60;;;;;;5008266;28;20041;-84
2021/04/11 10:26:26;;;;;;;11.90;10.00;;;12.70;54.80;;;;;;5010578;28;20029;-82
2021/04/11 10:29:26;;;;;;;14.50;11.70;;;12.70;54.70;;;;;;5006514;28;20088;-81
2021/04/11 10:32:07;;;;;;;12.70;10.82;;;12.70;54.60;;;;;;4947303;28;20397;-80
2021/04/11 10:34:43;;;;;;;15.15;11.23;;;12.70;54.60;;;;;;4973051;28;20029;-84
2021/04/11 10:37:22;;;;;;;12.05;10.77;;;12.70;54.60;;;;;;4988841;28;20038;-81
2021/04/11 10:40:30;;;;;;;14.65;10.57;;;12.70;54.40;;;;;;5006612;28;20029;-81
2021/04/11 10:43:59;;;;;;;10.90;9.57;;;12.70;54.20;;;;;;5025697;28;20076;-82
2021/04/11 10:46:48;;;;;;;12.15;10.73;;;12.70;54.10;;;;;;4984344;28;20034;-81
2021/04/11 10:49:39;;;;;;;12.10;10.10;;;12.70;54.00;;;;;;5007561;28;20611;-85
2021/04/11 10:52:27;;;;;;;12.23;10.65;;;12.60;53.60;;;;;;5010687;28;20277;-81
2021/04/11 10:55:21;;;;;;;12.05;9.50;;;12.60;53.60;;;;;;5027466;28;20025;-83
2021/04/11 10:58:24;;;;;;;10.30;9.13;;;12.60;53.50;;;;;;5030034;28;20036;-82
2021/04/11 11:01:15;;;;;;;9.32;8.57;;;12.70;53.60;;;;;;5012417;28;20049;-82
2021/04/11 11:04:20;;;;;;;9.70;8.73;;;12.70;53.50;;;;;;5012163;28;20433;-83
2021/04/11 11:07:18;;;;;;;10.15;9.05;;;12.90;53.70;;;;;;5011968;28;20071;-81
2021/04/11 11:09:44;;;;;;;10.30;8.73;;;13.00;53.80;;;;;;5012456;28;20041;-79
2021/04/11 11:12:52;;;;;;;10.02;8.15;;;13.10;53.70;;;;;;5011861;28;20041;-77
2021/04/11 11:15:32;;;;;;;14.05;9.32;;;13.10;52.30;;;;;;5001600;28;20128;-80
2021/04/11 11:18:10;;;;;;;15.15;13.75;;;13.00;51.50;;;;;;5028208;28;20069;-80
2021/04/11 11:21:13;;;;;;;29.83;27.42;;;12.90;51.30;;;;;;5028385;28;20420;-79
2021/04/11 11:23:45;;;;;;;27.75;25.38;;;12.90;51.40;;;;;;5029725;28;20574;-83
2021/04/11 11:26:30;;;;;;;24.98;23.02;;;12.90;51.50;;;;;;5028586;28;20499;-82
2021/04/11 11:29:07;;;;;;;23.30;21.48;;;13.00;51.70;;;;;;4995254;28;20033;-82
2021/04/11 11:31:58;;;;;;;22.02;20.42;;;13.00;51.40;;;;;;5012047;28;20044;-81
2021/04/11 11:34:59;;;;;;;21.35;19.45;;;13.10;51.50;;;;;;5010949;28;20022;-80
2021/04/11 11:37:34;;;;;;;19.92;18.42;;;13.10;51.40;;;;;;5019257;28;20029;-83
2021/04/11 11:40:34;;;;;;;19.75;18.15;;;13.20;51.40;;;;;;4991211;28;20065;-78
2021/04/11 11:43:29;;;;;;;18.17;16.58;;;13.40;51.60;;;;;;5010778;28;20128;-80
2021/04/11 11:46:16;;;;;;;17.83;16.42;;;13.50;51.50;;;;;;4997452;28;20056;-82
2021/04/11 11:48:46;;;;;;;16.88;15.48;;;13.60;51.40;;;;;;5027695;28;20132;-80
2021/04/11 11:51:29;;;;;;;15.93;14.57;;;13.60;51.40;;;;;;5027828;28;20033;-83
2021/04/11 11:53:57;;;;;;;14.95;13.55;;;13.70;51.40;;;;;;5011411;28;20488;-82
2021/04/11 11:56:29;;;;;;;15.07;13.88;;;13.70;51.40;;;;;;5027324;28;20041;-82
2021/04/11 11:59:17;;;;;;;14.63;13.48;;;13.80;51.40;;;;;;5010948;28;20030;-83
2021/04/11 12:01:54;;;;;;;15.02;13.48;;;13.90;51.30;;;;;;5028300;28;20053;-83
2021/04/11 12:04:44;;;;;;;14.80;12.80;;;14.00;51.30;;;;;;5012512;28;20084;-82
2021/04/11 12:07:37;;;;;;;13.30;12.20;;;14.10;51.40;;;;;;5011386;28;20045;-81
2021/04/11 12:10:12;;;;;;;13.55;12.40;;;14.10;51.20;;;;;;5010404;28;20045;-81
2021/04/11 12:13:06;;;;;;;13.70;12.40;;;14.10;51.10;;;;;;5028616;28;20048;-81
2021/04/11 12:16:00;;;;;;;12.32;11.32;;;14.10;51.00;;;;;;5026014;28;20215;-80
2021/04/11 12:18:41;;;;;;;11.93;10.82;;;14.20;51.20;;;;;;5009394;28;20022;-81
2021/04/11 12:21:32;;;;;;;11.25;10.35;;;14.20;51.70;;;;;;4993895;28;20052;-81
2021/04/11 12:24:20;;;;;;;10.90;9.93;;;14.20;51.00;;;;;;5023767;28;20029;-80
2021/04/11 12:26:55;;;;;;;10.70;9.82;;;14.20;51.00;;;;;;5009882;28;20047;-81
2021/04/11 12:29:33;;;;;;;11.10;10.20;;;14.20;50.90;;;;;;4996391;28;20510;-80
2021/04/11 12:32:15;;;;;;;10.30;9.32;;;14.20;50.80;;;;;;5011566;28;20129;-80
2021/04/11 12:35:19;;;;;;;9.90;9.00;;;14.30;51.00;;;;;;5008845;28;20029;-82
2021/04/11 12:37:53;;;;;;;9.57;8.88;;;14.30;50.80;;;;;;5007550;28;20034;-80
2021/04/11 12:40:40;;;;;;;9.07;8.27;;;14.40;51.10;;;;;;5011127;28;20539;-80
2021/04/11 12:43:12;;;;;;;9.45;8.52;;;14.40;50.90;;;;;;4995069;28;20030;-81
2021/04/11 12:45:53;;;;;;;9.10;8.40;;;14.50;51.00;;;;;;5012021;28;20439;-80
2021/04/11 12:48:33;;;;;;;8.80;7.95;;;14.50;50.90;;;;;;5012855;28;20064;-80
2021/04/11 12:50:59;;;;;;;7.90;7.28;;;14.60;50.80;;;;;;5011308;28;20035;-82
2021/04/11 12:54:02;;;;;;;7.55;6.75;;;14.60;50.90;;;;;;5027909;28;20124;-82
2021/04/11 12:56:31;;;;;;;7.88;7.18;;;14.70;51.00;;;;;;5028292;28;20060;-85
2021/04/11 12:59:02;;;;;;;7.70;7.05;;;14.80;51.10;;;;;;5028215;28;20026;-82
2021/04/11 13:01:36;;;;;;;8.02;7.25;;;14.90;51.20;;;;;;5012458;28;20045;-82
2021/04/11 13:04:23;;;;;;;8.00;7.30;;;15.00;51.20;;;;;;5029806;28;20033;-83
2021/04/11 13:06:55;;;;;;;6.97;6.30;;;15.20;51.40;;;;;;5030209;28;20050;-83
2021/04/11 13:09:48;;;;;;;7.53;6.80;;;15.30;51.40;;;;;;5029963;28;20045;-86
2021/04/11 13:12:38;;;;;;;7.30;6.60;;;15.50;51.50;;;;;;5029770;28;20529;-85
2021/04/11 13:15:22;;;;;;;7.13;6.43;;;15.60;51.40;;;;;;5028940;28;20040;-78
2021/04/11 13:18:00;;;;;;;6.80;6.20;;;15.70;51.30;;;;;;5007758;28;20401;-80
2021/04/11 13:20:35;;;;;;;7.68;6.88;;;15.70;51.30;;;;;;5028149;28;20289;-80
2021/04/11 13:23:15;;;;;;;6.57;5.97;;;15.70;51.10;;;;;;5020243;28;20029;-79
2021/04/11 13:26:16;;;;;;;6.75;6.15;;;15.60;50.90;;;;;;5025585;28;20037;-82
2021/04/11 13:29:04;;;;;;;6.63;5.97;;;15.60;50.90;;;;;;4992447;28;20049;-79
2021/04/11 13:32:25;;;;;;;6.47;5.82;;;15.50;50.70;;;;;;5008746;28;20029;-79
2021/04/11 13:35:04;;;;;;;7.53;6.20;;;15.50;50.60;;;;;;5000345;28;20067;-79
2021/04/11 13:37:34;;;;;;;6.25;5.75;;;15.40;50.40;;;;;;4992285;28;20530;-81
2021/04/11 13:40:09;;;;;;;5.57;5.18;;;15.40;50.50;;;;;;5009064;28;20037;-81
2021/04/11 13:43:13;;;;;;;6.32;5.63;;;15.40;50.40;;;;;;5002285;28;20435;-80
2021/04/11 13:45:51;;;;;;;6.38;5.80;;;15.40;50.50;;;;;;5028264;28;20041;-82
2021/04/11 13:48:36;;;;;;;5.68;5.25;;;15.40;50.50;;;;;;5027865;28;20520;-82
2021/04/11 13:51:43;;;;;;;6.25;5.25;;;15.30;50.20;;;;;;5010084;28;20067;-81
2021/04/11 13:54:34;;;;;;;5.18;4.78;;;15.30;50.20;;;;;;5028325;28;20116;-81
2021/04/11 13:57:11;;;;;;;5.18;4.68;;;15.30;50.40;;;;;;4993127;28;20056;-80